sensor_id;sensor_type;location;lat;lon;timestamp;P1;durP1;ratioP1;P2;durP2;ratioP2
19207;SDS011;9737;59.466;18.036;2022-07-23T00:00:55;46.30;;;9.63;;
19207;SDS011;9737;59.466;18.036;2022-07-23T00:03:23;45.60;;;9.65;;
19207;SDS011;9737;59.466;18.036;2022-07-23T00:05:51;53.67;;;10.18;;
19207;SDS011;9737;59.466;18.036;2022-07-23T00:08:19;47.80;;;10.93;;
19207;SDS011;9737;59.466;18.036;2022-07-23T00:10:47;66.00;;;11.23;;
19207;SDS011;9737;59.466;18.036;2022-07-23T00:13:16;50.10;;;10.18;;
19207;SDS011;9737;59.466;18.036;2022-07-23T00:15:44;49.25;;;10.80;;
19207;SDS011;9737;59.466;18.036;2022-07-23T00:18:13;46.05;;;10.88;;
19207;SDS011;9737;59.466;18.036;2022-07-23T00:20:40;54.63;;;10.43;;
19207;SDS011;9737;59.466;18.036;2022-07-23T00:23:08;44.83;;;10.27;;
19207;SDS011;9737;59.466;18.036;2022-07-23T00:25:37;48.78;;;10.70;;
19207;SDS011;9737;59.466;18.036;2022-07-23T00:28:05;50.67;;;11.07;;
19207;SDS011;9737;59.466;18.036;2022-07-23T00:30:35;46.35;;;10.75;;
19207;SDS011;9737;59.466;18.036;2022-07-23T00:33:04;44.28;;;11.00;;
19207;SDS011;9737;59.466;18.036;2022-07-23T00:35:34;56.88;;;11.38;;
19207;SDS011;9737;59.466;18.036;2022-07-23T00:38:03;45.67;;;10.90;;
19207;SDS011;9737;59.466;18.036;2022-07-23T00:40:32;38.30;;;9.98;;
19207;SDS011;9737;59.466;18.036;2022-07-23T00:43:00;47.72;;;10.75;;
19207;SDS011;9737;59.466;18.036;2022-07-23T00:45:32;45.33;;;9.95;;
19207;SDS011;9737;59.466;18.036;2022-07-23T00:48:01;43.17;;;10.25;;
19207;SDS011;9737;59.466;18.036;2022-07-23T00:50:30;39.72;;;9.93;;
19207;SDS011;9737;59.466;18.036;2022-07-23T00:52:57;44.10;;;10.77;;
19207;SDS011;9737;59.466;18.036;2022-07-23T00:55:26;44.05;;;10.45;;
19207;SDS011;9737;59.466;18.036;2022-07-23T00:57:54;37.00;;;9.55;;
19207;SDS011;9737;59.466;18.036;2022-07-23T01:00:22;35.35;;;8.55;;
19207;SDS011;9737;59.466;18.036;2022-07-23T01:02:50;32.28;;;8.07;;
19207;SDS011;9737;59.466;18.036;2022-07-23T01:05:20;31.33;;;7.65;;
19207;SDS011;9737;59.466;18.036;2022-07-23T01:07:49;28.27;;;7.38;;
19207;SDS011;9737;59.466;18.036;2022-07-23T01:10:21;31.75;;;8.07;;
19207;SDS011;9737;59.466;18.036;2022-07-23T01:12:59;28.17;;;7.63;;
19207;SDS011;9737;59.466;18.036;2022-07-23T01:15:28;28.27;;;7.28;;
19207;SDS011;9737;59.466;18.036;2022-07-23T01:17:57;25.95;;;8.05;;
19207;SDS011;9737;59.466;18.036;2022-07-23T01:20:26;27.42;;;6.80;;
19207;SDS011;9737;59.466;18.036;2022-07-23T01:22:56;30.75;;;7.07;;
19207;SDS011;9737;59.466;18.036;2022-07-23T01:25:24;29.77;;;7.43;;
19207;SDS011;9737;59.466;18.036;2022-07-23T01:27:53;22.80;;;6.38;;
19207;SDS011;9737;59.466;18.036;2022-07-23T01:30:21;24.40;;;8.05;;
19207;SDS011;9737;59.466;18.036;2022-07-23T01:32:49;29.25;;;7.35;;
19207;SDS011;9737;59.466;18.036;2022-07-23T01:35:17;31.73;;;7.35;;
19207;SDS011;9737;59.466;18.036;2022-07-23T01:37:45;24.20;;;6.72;;
19207;SDS011;9737;59.466;18.036;2022-07-23T01:40:14;25.08;;;7.22;;
19207;SDS011;9737;59.466;18.036;2022-07-23T01:42:44;16.50;;;6.18;;
19207;SDS011;9737;59.466;18.036;2022-07-23T01:45:12;29.65;;;6.75;;
19207;SDS011;9737;59.466;18.036;2022-07-23T01:47:40;19.73;;;5.72;;
19207;SDS011;9737;59.466;18.036;2022-07-23T01:50:09;19.50;;;5.13;;
19207;SDS011;9737;59.466;18.036;2022-07-23T01:52:37;24.88;;;4.88;;
19207;SDS011;9737;59.466;18.036;2022-07-23T01:55:05;13.07;;;4.18;;
19207;SDS011;9737;59.466;18.036;2022-07-23T01:57:35;18.00;;;4.55;;
19207;SDS011;9737;59.466;18.036;2022-07-23T02:00:04;13.18;;;3.70;;
19207;SDS011;9737;59.466;18.036;2022-07-23T02:02:35;9.98;;;3.90;;
19207;SDS011;9737;59.466;18.036;2022-07-23T02:05:04;12.57;;;3.72;;
19207;SDS011;9737;59.466;18.036;2022-07-23T02:07:33;11.70;;;3.20;;
19207;SDS011;9737;59.466;18.036;2022-07-23T02:10:02;9.65;;;3.08;;
19207;SDS011;9737;59.466;18.036;2022-07-23T02:12:30;7.18;;;2.85;;
19207;SDS011;9737;59.466;18.036;2022-07-23T02:15:00;9.18;;;3.10;;
19207;SDS011;9737;59.466;18.036;2022-07-23T02:17:28;7.93;;;2.85;;
19207;SDS011;9737;59.466;18.036;2022-07-23T02:19:56;5.55;;;2.33;;
19207;SDS011;9737;59.466;18.036;2022-07-23T02:22:24;7.13;;;2.38;;
19207;SDS011;9737;59.466;18.036;2022-07-23T02:24:52;6.75;;;2.50;;
19207;SDS011;9737;59.466;18.036;2022-07-23T02:27:20;5.75;;;2.55;;
19207;SDS011;9737;59.466;18.036;2022-07-23T02:29:49;4.45;;;2.00;;
19207;SDS011;9737;59.466;18.036;2022-07-23T02:32:19;5.47;;;2.13;;
19207;SDS011;9737;59.466;18.036;2022-07-23T02:34:48;5.30;;;1.70;;
19207;SDS011;9737;59.466;18.036;2022-07-23T02:37:17;5.05;;;1.90;;
19207;SDS011;9737;59.466;18.036;2022-07-23T02:39:45;6.75;;;1.90;;
19207;SDS011;9737;59.466;18.036;2022-07-23T02:42:14;3.55;;;1.77;;
19207;SDS011;9737;59.466;18.036;2022-07-23T02:44:42;9.65;;;2.00;;
19207;SDS011;9737;59.466;18.036;2022-07-23T02:47:10;4.28;;;1.80;;
19207;SDS011;9737;59.466;18.036;2022-07-23T02:49:40;7.15;;;2.00;;
19207;SDS011;9737;59.466;18.036;2022-07-23T02:52:08;4.10;;;1.77;;
19207;SDS011;9737;59.466;18.036;2022-07-23T02:54:37;5.80;;;2.00;;
19207;SDS011;9737;59.466;18.036;2022-07-23T02:57:05;4.30;;;2.05;;
19207;SDS011;9737;59.466;18.036;2022-07-23T02:59:33;3.22;;;1.85;;
19207;SDS011;9737;59.466;18.036;2022-07-23T03:02:01;3.25;;;1.70;;
19207;SDS011;9737;59.466;18.036;2022-07-23T03:04:29;6.38;;;2.20;;
19207;SDS011;9737;59.466;18.036;2022-07-23T03:06:58;2.47;;;2.00;;
19207;SDS011;9737;59.466;18.036;2022-07-23T03:09:26;2.25;;;1.58;;
19207;SDS011;9737;59.466;18.036;2022-07-23T03:11:54;3.80;;;1.95;;
19207;SDS011;9737;59.466;18.036;2022-07-23T03:14:22;4.30;;;1.77;;
19207;SDS011;9737;59.466;18.036;2022-07-23T03:16:50;2.33;;;1.60;;
19207;SDS011;9737;59.466;18.036;2022-07-23T03:19:20;3.80;;;1.95;;
19207;SDS011;9737;59.466;18.036;2022-07-23T03:21:49;4.38;;;1.67;;
19207;SDS011;9737;59.466;18.036;2022-07-23T03:24:18;6.07;;;2.05;;
19207;SDS011;9737;59.466;18.036;2022-07-23T03:26:46;5.40;;;1.92;;
19207;SDS011;9737;59.466;18.036;2022-07-23T03:29:14;5.00;;;2.10;;
19207;SDS011;9737;59.466;18.036;2022-07-23T03:31:43;4.75;;;1.90;;
19207;SDS011;9737;59.466;18.036;2022-07-23T03:34:11;4.25;;;2.08;;
19207;SDS011;9737;59.466;18.036;2022-07-23T03:36:39;4.35;;;1.80;;
19207;SDS011;9737;59.466;18.036;2022-07-23T03:39:09;3.72;;;2.22;;
19207;SDS011;9737;59.466;18.036;2022-07-23T03:41:41;3.50;;;1.95;;
19207;SDS011;9737;59.466;18.036;2022-07-23T03:44:08;3.53;;;1.98;;
19207;SDS011;9737;59.466;18.036;2022-07-23T03:46:37;6.10;;;2.10;;
19207;SDS011;9737;59.466;18.036;2022-07-23T03:49:05;3.33;;;1.88;;
19207;SDS011;9737;59.466;18.036;2022-07-23T03:51:33;6.70;;;2.22;;
19207;SDS011;9737;59.466;18.036;2022-07-23T03:54:02;4.88;;;1.90;;
19207;SDS011;9737;59.466;18.036;2022-07-23T03:56:30;3.92;;;2.38;;
19207;SDS011;9737;59.466;18.036;2022-07-23T03:58:59;4.05;;;2.10;;
19207;SDS011;9737;59.466;18.036;2022-07-23T04:01:28;3.72;;;2.15;;
19207;SDS011;9737;59.466;18.036;2022-07-23T04:03:56;4.65;;;2.30;;
19207;SDS011;9737;59.466;18.036;2022-07-23T04:06:24;7.20;;;2.20;;
19207;SDS011;9737;59.466;18.036;2022-07-23T04:08:53;5.85;;;2.20;;
19207;SDS011;9737;59.466;18.036;2022-07-23T04:11:21;4.03;;;2.20;;
19207;SDS011;9737;59.466;18.036;2022-07-23T04:13:50;6.35;;;2.45;;
19207;SDS011;9737;59.466;18.036;2022-07-23T04:16:19;8.00;;;2.45;;
19207;SDS011;9737;59.466;18.036;2022-07-23T04:18:47;5.50;;;2.17;;
19207;SDS011;9737;59.466;18.036;2022-07-23T04:21:15;5.65;;;2.50;;
19207;SDS011;9737;59.466;18.036;2022-07-23T04:23:43;6.97;;;2.72;;
19207;SDS011;9737;59.466;18.036;2022-07-23T04:26:11;8.38;;;2.70;;
19207;SDS011;9737;59.466;18.036;2022-07-23T04:28:43;7.22;;;2.63;;
19207;SDS011;9737;59.466;18.036;2022-07-23T04:31:11;4.65;;;2.50;;
19207;SDS011;9737;59.466;18.036;2022-07-23T04:33:40;8.88;;;2.60;;
19207;SDS011;9737;59.466;18.036;2022-07-23T04:36:08;7.30;;;2.58;;
19207;SDS011;9737;59.466;18.036;2022-07-23T04:38:36;7.28;;;2.92;;
19207;SDS011;9737;59.466;18.036;2022-07-23T04:41:04;5.20;;;2.67;;
19207;SDS011;9737;59.466;18.036;2022-07-23T04:43:32;7.70;;;2.50;;
19207;SDS011;9737;59.466;18.036;2022-07-23T04:46:01;4.68;;;2.60;;
19207;SDS011;9737;59.466;18.036;2022-07-23T04:48:29;8.65;;;2.70;;
19207;SDS011;9737;59.466;18.036;2022-07-23T04:50:59;5.35;;;2.80;;
19207;SDS011;9737;59.466;18.036;2022-07-23T04:53:27;5.30;;;2.70;;
19207;SDS011;9737;59.466;18.036;2022-07-23T04:55:55;5.35;;;2.53;;
19207;SDS011;9737;59.466;18.036;2022-07-23T04:58:23;5.20;;;2.50;;
19207;SDS011;9737;59.466;18.036;2022-07-23T05:00:51;3.35;;;2.45;;
19207;SDS011;9737;59.466;18.036;2022-07-23T05:03:19;5.57;;;2.67;;
19207;SDS011;9737;59.466;18.036;2022-07-23T05:05:47;3.60;;;2.60;;
19207;SDS011;9737;59.466;18.036;2022-07-23T05:08:16;4.50;;;2.70;;
19207;SDS011;9737;59.466;18.036;2022-07-23T05:10:44;4.95;;;2.40;;
19207;SDS011;9737;59.466;18.036;2022-07-23T05:13:13;4.43;;;2.42;;
19207;SDS011;9737;59.466;18.036;2022-07-23T05:15:42;6.40;;;2.53;;
19207;SDS011;9737;59.466;18.036;2022-07-23T05:18:10;3.20;;;1.95;;
19207;SDS011;9737;59.466;18.036;2022-07-23T05:20:38;4.22;;;2.20;;
19207;SDS011;9737;59.466;18.036;2022-07-23T05:23:06;3.70;;;2.20;;
19207;SDS011;9737;59.466;18.036;2022-07-23T05:25:35;3.97;;;2.30;;
19207;SDS011;9737;59.466;18.036;2022-07-23T05:28:03;3.40;;;1.95;;
19207;SDS011;9737;59.466;18.036;2022-07-23T05:30:31;6.55;;;2.45;;
19207;SDS011;9737;59.466;18.036;2022-07-23T05:32:59;4.35;;;2.05;;
19207;SDS011;9737;59.466;18.036;2022-07-23T05:35:27;3.13;;;1.90;;
19207;SDS011;9737;59.466;18.036;2022-07-23T05:37:55;2.95;;;2.00;;
19207;SDS011;9737;59.466;18.036;2022-07-23T05:40:23;4.32;;;1.90;;
19207;SDS011;9737;59.466;18.036;2022-07-23T05:42:52;3.90;;;1.90;;
19207;SDS011;9737;59.466;18.036;2022-07-23T05:45:20;4.65;;;1.88;;
19207;SDS011;9737;59.466;18.036;2022-07-23T05:47:49;2.10;;;1.80;;
19207;SDS011;9737;59.466;18.036;2022-07-23T05:50:17;3.60;;;1.67;;
19207;SDS011;9737;59.466;18.036;2022-07-23T05:52:45;2.67;;;1.70;;
19207;SDS011;9737;59.466;18.036;2022-07-23T05:55:14;2.35;;;1.70;;
19207;SDS011;9737;59.466;18.036;2022-07-23T05:57:42;2.20;;;1.75;;
19207;SDS011;9737;59.466;18.036;2022-07-23T06:00:11;2.95;;;1.80;;
19207;SDS011;9737;59.466;18.036;2022-07-23T06:02:40;2.72;;;1.95;;
19207;SDS011;9737;59.466;18.036;2022-07-23T06:05:08;3.03;;;1.80;;
19207;SDS011;9737;59.466;18.036;2022-07-23T06:07:36;6.45;;;1.60;;
19207;SDS011;9737;59.466;18.036;2022-07-23T06:10:04;8.45;;;1.70;;
19207;SDS011;9737;59.466;18.036;2022-07-23T06:12:33;4.15;;;1.70;;
19207;SDS011;9737;59.466;18.036;2022-07-23T06:15:01;2.40;;;1.85;;
19207;SDS011;9737;59.466;18.036;2022-07-23T06:17:37;4.97;;;1.70;;
19207;SDS011;9737;59.466;18.036;2022-07-23T06:20:06;1.60;;;1.50;;
19207;SDS011;9737;59.466;18.036;2022-07-23T06:22:37;4.63;;;1.77;;
19207;SDS011;9737;59.466;18.036;2022-07-23T06:25:06;2.15;;;1.20;;
19207;SDS011;9737;59.466;18.036;2022-07-23T06:27:44;1.45;;;1.35;;
19207;SDS011;9737;59.466;18.036;2022-07-23T06:30:12;2.92;;;1.38;;
19207;SDS011;9737;59.466;18.036;2022-07-23T06:32:45;1.73;;;1.30;;
19207;SDS011;9737;59.466;18.036;2022-07-23T06:35:13;1.70;;;1.40;;
19207;SDS011;9737;59.466;18.036;2022-07-23T06:37:42;4.13;;;1.50;;
19207;SDS011;9737;59.466;18.036;2022-07-23T06:40:11;2.17;;;1.40;;
19207;SDS011;9737;59.466;18.036;2022-07-23T06:42:40;2.20;;;1.30;;
19207;SDS011;9737;59.466;18.036;2022-07-23T06:45:08;1.80;;;1.30;;
19207;SDS011;9737;59.466;18.036;2022-07-23T06:47:37;2.30;;;1.40;;
19207;SDS011;9737;59.466;18.036;2022-07-23T06:50:07;2.50;;;1.30;;
19207;SDS011;9737;59.466;18.036;2022-07-23T06:52:35;1.80;;;1.40;;
19207;SDS011;9737;59.466;18.036;2022-07-23T06:55:08;2.28;;;1.35;;
19207;SDS011;9737;59.466;18.036;2022-07-23T06:57:36;2.10;;;1.42;;
19207;SDS011;9737;59.466;18.036;2022-07-23T07:00:05;2.33;;;1.60;;
19207;SDS011;9737;59.466;18.036;2022-07-23T07:02:33;1.40;;;1.30;;
19207;SDS011;9737;59.466;18.036;2022-07-23T07:05:01;2.22;;;1.60;;
19207;SDS011;9737;59.466;18.036;2022-07-23T07:07:33;2.08;;;1.30;;
19207;SDS011;9737;59.466;18.036;2022-07-23T07:10:01;3.25;;;1.52;;
19207;SDS011;9737;59.466;18.036;2022-07-23T07:12:29;1.20;;;1.02;;
19207;SDS011;9737;59.466;18.036;2022-07-23T07:14:57;1.42;;;1.15;;
19207;SDS011;9737;59.466;18.036;2022-07-23T07:17:25;1.48;;;1.20;;
19207;SDS011;9737;59.466;18.036;2022-07-23T07:19:52;3.22;;;1.20;;
19207;SDS011;9737;59.466;18.036;2022-07-23T07:22:21;1.35;;;1.25;;
19207;SDS011;9737;59.466;18.036;2022-07-23T07:24:50;1.20;;;1.10;;
19207;SDS011;9737;59.466;18.036;2022-07-23T07:27:18;2.90;;;1.00;;
19207;SDS011;9737;59.466;18.036;2022-07-23T07:29:46;3.08;;;1.10;;
19207;SDS011;9737;59.466;18.036;2022-07-23T07:32:14;1.40;;;1.30;;
19207;SDS011;9737;59.466;18.036;2022-07-23T07:35:02;2.75;;;1.20;;
19207;SDS011;9737;59.466;18.036;2022-07-23T07:37:30;1.95;;;1.20;;
19207;SDS011;9737;59.466;18.036;2022-07-23T07:39:59;1.58;;;1.17;;
19207;SDS011;9737;59.466;18.036;2022-07-23T07:42:27;1.20;;;1.08;;
19207;SDS011;9737;59.466;18.036;2022-07-23T07:44:56;2.08;;;1.30;;
19207;SDS011;9737;59.466;18.036;2022-07-23T07:47:24;1.45;;;1.00;;
19207;SDS011;9737;59.466;18.036;2022-07-23T07:49:51;0.98;;;0.98;;
19207;SDS011;9737;59.466;18.036;2022-07-23T07:52:20;1.23;;;1.10;;
19207;SDS011;9737;59.466;18.036;2022-07-23T07:54:48;1.85;;;1.02;;
19207;SDS011;9737;59.466;18.036;2022-07-23T07:57:17;1.15;;;0.90;;
19207;SDS011;9737;59.466;18.036;2022-07-23T07:59:46;1.13;;;1.02;;
19207;SDS011;9737;59.466;18.036;2022-07-23T08:02:21;1.30;;;0.80;;
19207;SDS011;9737;59.466;18.036;2022-07-23T08:04:49;1.00;;;1.00;;
19207;SDS011;9737;59.466;18.036;2022-07-23T08:07:18;1.10;;;1.00;;
19207;SDS011;9737;59.466;18.036;2022-07-23T08:09:46;1.10;;;1.00;;
19207;SDS011;9737;59.466;18.036;2022-07-23T08:12:14;1.35;;;1.00;;
19207;SDS011;9737;59.466;18.036;2022-07-23T08:14:44;1.35;;;0.90;;
19207;SDS011;9737;59.466;18.036;2022-07-23T08:17:11;1.35;;;1.20;;
19207;SDS011;9737;59.466;18.036;2022-07-23T08:19:40;1.10;;;1.00;;
19207;SDS011;9737;59.466;18.036;2022-07-23T08:22:08;2.10;;;0.90;;
19207;SDS011;9737;59.466;18.036;2022-07-23T08:24:37;1.00;;;0.90;;
19207;SDS011;9737;59.466;18.036;2022-07-23T08:27:06;3.35;;;0.82;;
19207;SDS011;9737;59.466;18.036;2022-07-23T08:29:34;0.82;;;0.82;;
19207;SDS011;9737;59.466;18.036;2022-07-23T08:32:04;1.88;;;1.10;;
19207;SDS011;9737;59.466;18.036;2022-07-23T08:34:52;0.80;;;0.80;;
19207;SDS011;9737;59.466;18.036;2022-07-23T08:37:20;1.00;;;1.00;;
19207;SDS011;9737;59.466;18.036;2022-07-23T08:39:48;1.35;;;0.85;;
19207;SDS011;9737;59.466;18.036;2022-07-23T08:42:16;0.82;;;0.82;;
19207;SDS011;9737;59.466;18.036;2022-07-23T08:44:46;1.73;;;1.00;;
19207;SDS011;9737;59.466;18.036;2022-07-23T08:47:16;1.00;;;0.95;;
19207;SDS011;9737;59.466;18.036;2022-07-23T08:49:45;1.05;;;0.95;;
19207;SDS011;9737;59.466;18.036;2022-07-23T08:52:14;0.90;;;0.90;;
19207;SDS011;9737;59.466;18.036;2022-07-23T08:54:42;0.90;;;0.80;;
19207;SDS011;9737;59.466;18.036;2022-07-23T08:57:11;0.90;;;0.90;;
19207;SDS011;9737;59.466;18.036;2022-07-23T08:59:39;0.85;;;0.73;;
19207;SDS011;9737;59.466;18.036;2022-07-23T09:02:08;1.23;;;0.80;;
19207;SDS011;9737;59.466;18.036;2022-07-23T09:04:37;1.35;;;0.90;;
19207;SDS011;9737;59.466;18.036;2022-07-23T09:07:05;0.70;;;0.70;;
19207;SDS011;9737;59.466;18.036;2022-07-23T09:09:33;1.70;;;0.95;;
19207;SDS011;9737;59.466;18.036;2022-07-23T09:12:02;0.77;;;0.77;;
19207;SDS011;9737;59.466;18.036;2022-07-23T09:14:38;0.80;;;0.80;;
19207;SDS011;9737;59.466;18.036;2022-07-23T09:17:08;0.70;;;0.70;;
19207;SDS011;9737;59.466;18.036;2022-07-23T09:19:38;0.90;;;0.90;;
19207;SDS011;9737;59.466;18.036;2022-07-23T09:22:16;1.38;;;0.90;;
19207;SDS011;9737;59.466;18.036;2022-07-23T09:25:02;1.75;;;0.93;;
19207;SDS011;9737;59.466;18.036;2022-07-23T09:27:45;1.45;;;0.90;;
19207;SDS011;9737;59.466;18.036;2022-07-23T09:30:21;0.80;;;0.80;;
19207;SDS011;9737;59.466;18.036;2022-07-23T09:33:05;0.95;;;0.90;;
19207;SDS011;9737;59.466;18.036;2022-07-23T09:35:49;1.77;;;0.80;;
19207;SDS011;9737;59.466;18.036;2022-07-23T09:38:19;0.95;;;0.95;;
19207;SDS011;9737;59.466;18.036;2022-07-23T09:43:34;1.95;;;0.90;;
19207;SDS011;9737;59.466;18.036;2022-07-23T09:46:18;2.88;;;0.80;;
19207;SDS011;9737;59.466;18.036;2022-07-23T09:48:49;2.63;;;1.10;;
19207;SDS011;9737;59.466;18.036;2022-07-23T09:51:20;1.88;;;1.20;;
19207;SDS011;9737;59.466;18.036;2022-07-23T09:53:53;1.52;;;1.02;;
19207;SDS011;9737;59.466;18.036;2022-07-23T09:56:21;1.85;;;0.85;;
19207;SDS011;9737;59.466;18.036;2022-07-23T09:58:53;3.35;;;1.13;;
19207;SDS011;9737;59.466;18.036;2022-07-23T10:01:30;1.67;;;0.98;;
19207;SDS011;9737;59.466;18.036;2022-07-23T10:03:59;2.35;;;1.00;;
19207;SDS011;9737;59.466;18.036;2022-07-23T10:06:30;2.92;;;0.98;;
19207;SDS011;9737;59.466;18.036;2022-07-23T10:08:58;3.67;;;1.30;;
19207;SDS011;9737;59.466;18.036;2022-07-23T10:11:29;1.10;;;1.00;;
19207;SDS011;9737;59.466;18.036;2022-07-23T10:13:58;2.30;;;1.10;;
19207;SDS011;9737;59.466;18.036;2022-07-23T10:16:29;1.08;;;1.00;;
19207;SDS011;9737;59.466;18.036;2022-07-23T10:18:58;2.72;;;1.27;;
19207;SDS011;9737;59.466;18.036;2022-07-23T10:21:30;5.07;;;1.13;;
19207;SDS011;9737;59.466;18.036;2022-07-23T10:24:10;2.05;;;0.95;;
19207;SDS011;9737;59.466;18.036;2022-07-23T10:26:51;1.55;;;1.13;;
19207;SDS011;9737;59.466;18.036;2022-07-23T10:29:29;1.17;;;1.10;;
19207;SDS011;9737;59.466;18.036;2022-07-23T10:32:14;2.28;;;1.13;;
19207;SDS011;9737;59.466;18.036;2022-07-23T10:34:51;3.15;;;1.15;;
19207;SDS011;9737;59.466;18.036;2022-07-23T10:37:28;1.20;;;1.10;;
19207;SDS011;9737;59.466;18.036;2022-07-23T10:40:11;1.55;;;1.10;;
19207;SDS011;9737;59.466;18.036;2022-07-23T10:42:41;2.78;;;1.10;;
19207;SDS011;9737;59.466;18.036;2022-07-23T10:45:21;1.55;;;1.17;;
19207;SDS011;9737;59.466;18.036;2022-07-23T10:47:53;2.78;;;1.10;;
19207;SDS011;9737;59.466;18.036;2022-07-23T10:50:23;5.47;;;1.20;;
19207;SDS011;9737;59.466;18.036;2022-07-23T10:53:11;2.80;;;1.10;;
19207;SDS011;9737;59.466;18.036;2022-07-23T10:55:46;1.33;;;1.13;;
19207;SDS011;9737;59.466;18.036;2022-07-23T10:58:22;2.33;;;1.48;;
19207;SDS011;9737;59.466;18.036;2022-07-23T11:04:01;1.50;;;1.40;;
19207;SDS011;9737;59.466;18.036;2022-07-23T11:09:40;1.40;;;1.30;;
19207;SDS011;9737;59.466;18.036;2022-07-23T11:15:05;2.65;;;1.50;;
19207;SDS011;9737;59.466;18.036;2022-07-23T11:17:36;1.92;;;1.35;;
19207;SDS011;9737;59.466;18.036;2022-07-23T11:20:21;3.47;;;1.50;;
19207;SDS011;9737;59.466;18.036;2022-07-23T11:22:50;3.28;;;1.67;;
19207;SDS011;9737;59.466;18.036;2022-07-23T11:25:30;1.88;;;1.52;;
19207;SDS011;9737;59.466;18.036;2022-07-23T11:28:10;1.60;;;1.40;;
19207;SDS011;9737;59.466;18.036;2022-07-23T11:30:42;1.65;;;1.50;;
19207;SDS011;9737;59.466;18.036;2022-07-23T11:33:18;4.03;;;1.52;;
19207;SDS011;9737;59.466;18.036;2022-07-23T11:35:48;3.05;;;1.70;;
19207;SDS011;9737;59.466;18.036;2022-07-23T11:38:18;3.30;;;1.52;;
19207;SDS011;9737;59.466;18.036;2022-07-23T11:40:50;2.75;;;1.30;;
19207;SDS011;9737;59.466;18.036;2022-07-23T11:43:20;3.78;;;1.60;;
19207;SDS011;9737;59.466;18.036;2022-07-23T11:45:51;4.22;;;1.50;;
19207;SDS011;9737;59.466;18.036;2022-07-23T11:48:21;1.50;;;1.40;;
19207;SDS011;9737;59.466;18.036;2022-07-23T11:50:51;2.38;;;1.45;;
19207;SDS011;9737;59.466;18.036;2022-07-23T11:53:23;4.65;;;1.70;;
19207;SDS011;9737;59.466;18.036;2022-07-23T11:55:53;2.05;;;1.52;;
19207;SDS011;9737;59.466;18.036;2022-07-23T11:58:21;1.98;;;1.35;;
19207;SDS011;9737;59.466;18.036;2022-07-23T12:00:50;1.52;;;1.20;;
19207;SDS011;9737;59.466;18.036;2022-07-23T12:03:19;2.22;;;1.40;;
19207;SDS011;9737;59.466;18.036;2022-07-23T12:05:47;5.30;;;1.50;;
19207;SDS011;9737;59.466;18.036;2022-07-23T12:08:16;6.15;;;1.42;;
19207;SDS011;9737;59.466;18.036;2022-07-23T12:10:44;1.80;;;1.30;;
19207;SDS011;9737;59.466;18.036;2022-07-23T12:13:14;4.55;;;1.83;;
19207;SDS011;9737;59.466;18.036;2022-07-23T12:15:45;1.63;;;1.35;;
19207;SDS011;9737;59.466;18.036;2022-07-23T12:18:15;4.15;;;1.40;;
19207;SDS011;9737;59.466;18.036;2022-07-23T12:20:45;2.45;;;1.63;;
19207;SDS011;9737;59.466;18.036;2022-07-23T12:23:17;2.72;;;1.52;;
19207;SDS011;9737;59.466;18.036;2022-07-23T12:25:47;2.20;;;1.40;;
19207;SDS011;9737;59.466;18.036;2022-07-23T12:28:18;4.05;;;1.40;;
19207;SDS011;9737;59.466;18.036;2022-07-23T12:30:48;4.72;;;1.50;;
19207;SDS011;9737;59.466;18.036;2022-07-23T12:33:21;1.95;;;1.30;;
19207;SDS011;9737;59.466;18.036;2022-07-23T12:35:51;2.38;;;1.40;;
19207;SDS011;9737;59.466;18.036;2022-07-23T12:38:21;1.42;;;1.30;;
19207;SDS011;9737;59.466;18.036;2022-07-23T12:40:50;2.22;;;1.40;;
19207;SDS011;9737;59.466;18.036;2022-07-23T12:43:22;1.75;;;1.40;;
19207;SDS011;9737;59.466;18.036;2022-07-23T12:45:54;4.78;;;1.48;;
19207;SDS011;9737;59.466;18.036;2022-07-23T12:48:26;4.57;;;1.33;;
19207;SDS011;9737;59.466;18.036;2022-07-23T12:50:58;1.40;;;1.25;;
19207;SDS011;9737;59.466;18.036;2022-07-23T12:53:28;1.27;;;1.10;;
19207;SDS011;9737;59.466;18.036;2022-07-23T12:56:01;1.80;;;1.17;;
19207;SDS011;9737;59.466;18.036;2022-07-23T12:58:43;3.00;;;1.25;;
19207;SDS011;9737;59.466;18.036;2022-07-23T13:01:28;1.38;;;1.20;;
19207;SDS011;9737;59.466;18.036;2022-07-23T13:04:03;3.67;;;1.30;;
19207;SDS011;9737;59.466;18.036;2022-07-23T13:06:40;4.45;;;1.30;;
19207;SDS011;9737;59.466;18.036;2022-07-23T13:09:10;3.38;;;1.40;;
19207;SDS011;9737;59.466;18.036;2022-07-23T13:11:41;2.83;;;1.40;;
19207;SDS011;9737;59.466;18.036;2022-07-23T13:14:11;2.00;;;1.40;;
19207;SDS011;9737;59.466;18.036;2022-07-23T13:16:40;7.28;;;1.60;;
19207;SDS011;9737;59.466;18.036;2022-07-23T13:19:09;1.90;;;1.40;;
19207;SDS011;9737;59.466;18.036;2022-07-23T13:21:39;6.50;;;1.67;;
19207;SDS011;9737;59.466;18.036;2022-07-23T13:24:08;1.73;;;1.30;;
19207;SDS011;9737;59.466;18.036;2022-07-23T13:26:38;4.32;;;1.60;;
19207;SDS011;9737;59.466;18.036;2022-07-23T13:29:07;4.38;;;1.50;;
19207;SDS011;9737;59.466;18.036;2022-07-23T13:31:37;3.45;;;1.60;;
19207;SDS011;9737;59.466;18.036;2022-07-23T13:34:06;4.82;;;1.50;;
19207;SDS011;9737;59.466;18.036;2022-07-23T13:36:35;4.53;;;1.60;;
19207;SDS011;9737;59.466;18.036;2022-07-23T13:39:03;1.75;;;1.55;;
19207;SDS011;9737;59.466;18.036;2022-07-23T13:41:35;3.58;;;1.70;;
19207;SDS011;9737;59.466;18.036;2022-07-23T13:44:03;1.85;;;1.40;;
19207;SDS011;9737;59.466;18.036;2022-07-23T13:46:32;2.67;;;1.65;;
19207;SDS011;9737;59.466;18.036;2022-07-23T13:49:02;1.83;;;1.52;;
19207;SDS011;9737;59.466;18.036;2022-07-23T13:51:34;2.10;;;1.70;;
19207;SDS011;9737;59.466;18.036;2022-07-23T13:54:02;1.55;;;1.45;;
19207;SDS011;9737;59.466;18.036;2022-07-23T13:56:34;2.00;;;1.52;;
19207;SDS011;9737;59.466;18.036;2022-07-23T13:59:02;1.50;;;1.40;;
19207;SDS011;9737;59.466;18.036;2022-07-23T14:01:32;1.50;;;1.40;;
19207;SDS011;9737;59.466;18.036;2022-07-23T14:04:17;1.70;;;1.40;;
19207;SDS011;9737;59.466;18.036;2022-07-23T14:06:45;2.60;;;1.40;;
19207;SDS011;9737;59.466;18.036;2022-07-23T14:09:18;3.60;;;1.85;;
19207;SDS011;9737;59.466;18.036;2022-07-23T14:11:46;3.50;;;1.70;;
19207;SDS011;9737;59.466;18.036;2022-07-23T14:14:14;1.63;;;1.52;;
19207;SDS011;9737;59.466;18.036;2022-07-23T14:16:42;2.17;;;1.80;;
19207;SDS011;9737;59.466;18.036;2022-07-23T14:19:11;3.60;;;2.05;;
19207;SDS011;9737;59.466;18.036;2022-07-23T14:21:40;2.40;;;1.70;;
19207;SDS011;9737;59.466;18.036;2022-07-23T14:24:08;3.78;;;2.20;;
19207;SDS011;9737;59.466;18.036;2022-07-23T14:26:36;3.75;;;2.00;;
19207;SDS011;9737;59.466;18.036;2022-07-23T14:29:04;2.40;;;1.85;;
19207;SDS011;9737;59.466;18.036;2022-07-23T14:31:33;3.47;;;1.80;;
19207;SDS011;9737;59.466;18.036;2022-07-23T14:34:02;2.33;;;1.60;;
19207;SDS011;9737;59.466;18.036;2022-07-23T14:36:33;15.52;;;2.47;;
19207;SDS011;9737;59.466;18.036;2022-07-23T14:39:02;3.67;;;1.60;;
19207;SDS011;9737;59.466;18.036;2022-07-23T14:41:31;1.90;;;1.67;;
19207;SDS011;9737;59.466;18.036;2022-07-23T14:43:59;2.35;;;1.70;;
19207;SDS011;9737;59.466;18.036;2022-07-23T14:46:26;5.60;;;1.70;;
19207;SDS011;9737;59.466;18.036;2022-07-23T14:48:55;3.28;;;1.70;;
19207;SDS011;9737;59.466;18.036;2022-07-23T14:51:23;5.68;;;1.77;;
19207;SDS011;9737;59.466;18.036;2022-07-23T14:53:52;3.15;;;1.67;;
19207;SDS011;9737;59.466;18.036;2022-07-23T14:56:22;3.30;;;1.70;;
19207;SDS011;9737;59.466;18.036;2022-07-23T14:58:49;2.15;;;1.77;;
19207;SDS011;9737;59.466;18.036;2022-07-23T15:01:18;2.60;;;1.73;;
19207;SDS011;9737;59.466;18.036;2022-07-23T15:03:45;1.95;;;1.73;;
19207;SDS011;9737;59.466;18.036;2022-07-23T15:06:13;3.58;;;1.70;;
19207;SDS011;9737;59.466;18.036;2022-07-23T15:08:43;2.83;;;1.63;;
19207;SDS011;9737;59.466;18.036;2022-07-23T15:11:13;3.63;;;1.70;;
19207;SDS011;9737;59.466;18.036;2022-07-23T15:13:42;3.40;;;1.70;;